sensor_id;sensor_type;location;lat;lon;timestamp;temperature;humidity
12847;DHT22;6492;48.128;8.320;2023-04-24T00:03:58;7.70;38.40
12847;DHT22;6492;48.128;8.320;2023-04-24T00:07:59;7.70;38.70
12847;DHT22;6492;48.128;8.320;2023-04-24T00:12:01;7.60;37.80
12847;DHT22;6492;48.128;8.320;2023-04-24T00:16:05;7.60;37.90
12847;DHT22;6492;48.128;8.320;2023-04-24T00:20:09;7.60;38.20
12847;DHT22;6492;48.128;8.320;2023-04-24T00:24:11;7.60;38.50
12847;DHT22;6492;48.128;8.320;2023-04-24T00:28:13;7.60;38.90
12847;DHT22;6492;48.128;8.320;2023-04-24T00:32:15;7.60;39.00
12847;DHT22;6492;48.128;8.320;2023-04-24T00:36:19;7.60;38.60
12847;DHT22;6492;48.128;8.320;2023-04-24T00:40:38;7.60;38.90
12847;DHT22;6492;48.128;8.320;2023-04-24T00:44:40;7.60;39.10
12847;DHT22;6492;48.128;8.320;2023-04-24T00:48:42;7.60;39.10
12847;DHT22;6492;48.128;8.320;2023-04-24T00:52:45;7.60;39.70
12847;DHT22;6492;48.128;8.320;2023-04-24T00:56:47;7.70;40.40
12847;DHT22;6492;48.128;8.320;2023-04-24T01:00:50;7.60;39.80
12847;DHT22;6492;48.128;8.320;2023-04-24T01:04:54;7.60;39.70
12847;DHT22;6492;48.128;8.320;2023-04-24T01:08:59;7.60;39.50
12847;DHT22;6492;48.128;8.320;2023-04-24T01:13:00;7.60;39.80
12847;DHT22;6492;48.128;8.320;2023-04-24T01:17:02;7.60;39.70
12847;DHT22;6492;48.128;8.320;2023-04-24T01:21:05;7.60;39.70
12847;DHT22;6492;48.128;8.320;2023-04-24T01:25:10;7.60;39.50
12847;DHT22;6492;48.128;8.320;2023-04-24T01:29:12;7.60;39.30
12847;DHT22;6492;48.128;8.320;2023-04-24T01:33:14;7.60;39.90
12847;DHT22;6492;48.128;8.320;2023-04-24T01:37:16;7.60;40.40
12847;DHT22;6492;48.128;8.320;2023-04-24T01:41:19;7.50;40.80
12847;DHT22;6492;48.128;8.320;2023-04-24T01:45:21;7.40;41.20
12847;DHT22;6492;48.128;8.320;2023-04-24T01:49:23;7.30;42.90
12847;DHT22;6492;48.128;8.320;2023-04-24T01:53:25;7.20;43.80
12847;DHT22;6492;48.128;8.320;2023-04-24T01:57:28;7.10;46.30
12847;DHT22;6492;48.128;8.320;2023-04-24T02:01:33;7.10;46.60
12847;DHT22;6492;48.128;8.320;2023-04-24T02:05:35;7.00;47.10
12847;DHT22;6492;48.128;8.320;2023-04-24T02:09:39;7.00;48.60
12847;DHT22;6492;48.128;8.320;2023-04-24T02:13:42;7.00;51.80
12847;DHT22;6492;48.128;8.320;2023-04-24T02:17:44;6.90;53.50
12847;DHT22;6492;48.128;8.320;2023-04-24T02:21:46;6.80;54.40
12847;DHT22;6492;48.128;8.320;2023-04-24T02:25:47;6.80;56.80
12847;DHT22;6492;48.128;8.320;2023-04-24T02:29:51;6.80;57.40
12847;DHT22;6492;48.128;8.320;2023-04-24T02:33:52;6.80;57.90
12847;DHT22;6492;48.128;8.320;2023-04-24T02:37:54;6.80;57.30
12847;DHT22;6492;48.128;8.320;2023-04-24T02:41:56;6.80;56.20
12847;DHT22;6492;48.128;8.320;2023-04-24T02:46:00;6.80;55.80
12847;DHT22;6492;48.128;8.320;2023-04-24T02:50:02;6.80;56.60
12847;DHT22;6492;48.128;8.320;2023-04-24T02:54:04;6.80;57.10
12847;DHT22;6492;48.128;8.320;2023-04-24T02:58:06;6.80;57.50
12847;DHT22;6492;48.128;8.320;2023-04-24T03:02:09;6.80;58.70
12847;DHT22;6492;48.128;8.320;2023-04-24T03:06:11;6.70;60.60
12847;DHT22;6492;48.128;8.320;2023-04-24T03:10:13;6.60;59.80
12847;DHT22;6492;48.128;8.320;2023-04-24T03:14:15;6.60;61.60
12847;DHT22;6492;48.128;8.320;2023-04-24T03:18:18;6.60;60.30
12847;DHT22;6492;48.128;8.320;2023-04-24T03:22:20;6.60;60.60
12847;DHT22;6492;48.128;8.320;2023-04-24T03:26:21;6.60;61.00
12847;DHT22;6492;48.128;8.320;2023-04-24T03:30:23;6.60;61.40
12847;DHT22;6492;48.128;8.320;2023-04-24T03:34:26;6.50;61.70
12847;DHT22;6492;48.128;8.320;2023-04-24T03:38:28;6.50;62.50
12847;DHT22;6492;48.128;8.320;2023-04-24T03:42:30;6.50;63.40
12847;DHT22;6492;48.128;8.320;2023-04-24T03:46:31;6.50;63.00
12847;DHT22;6492;48.128;8.320;2023-04-24T03:50:35;6.50;61.60
12847;DHT22;6492;48.128;8.320;2023-04-24T03:54:36;6.50;59.70
12847;DHT22;6492;48.128;8.320;2023-04-24T03:58:55;6.60;59.30
12847;DHT22;6492;48.128;8.320;2023-04-24T04:02:56;6.50;60.60
12847;DHT22;6492;48.128;8.320;2023-04-24T04:07:00;6.50;61.40
12847;DHT22;6492;48.128;8.320;2023-04-24T04:11:03;6.40;62.60
12847;DHT22;6492;48.128;8.320;2023-04-24T04:15:05;6.40;62.20
12847;DHT22;6492;48.128;8.320;2023-04-24T04:19:07;6.40;62.40
12847;DHT22;6492;48.128;8.320;2023-04-24T04:23:10;6.40;62.90
12847;DHT22;6492;48.128;8.320;2023-04-24T04:27:12;6.30;49.00
12847;DHT22;6492;48.128;8.320;2023-04-24T04:31:15;5.40;48.30
12847;DHT22;6492;48.128;8.320;2023-04-24T04:35:17;4.90;54.90
12847;DHT22;6492;48.128;8.320;2023-04-24T04:39:21;4.50;59.90
12847;DHT22;6492;48.128;8.320;2023-04-24T04:43:23;4.30;63.80
12847;DHT22;6492;48.128;8.320;2023-04-24T04:47:26;4.20;66.60
12847;DHT22;6492;48.128;8.320;2023-04-24T04:51:29;4.20;68.60
12847;DHT22;6492;48.128;8.320;2023-04-24T04:55:32;4.20;70.10
12847;DHT22;6492;48.128;8.320;2023-04-24T04:59:35;4.20;71.30
12847;DHT22;6492;48.128;8.320;2023-04-24T05:03:37;4.30;72.70
12847;DHT22;6492;48.128;8.320;2023-04-24T05:07:39;4.40;73.50
12847;DHT22;6492;48.128;8.320;2023-04-24T05:11:42;4.50;75.00
12847;DHT22;6492;48.128;8.320;2023-04-24T05:15:44;4.60;74.70
12847;DHT22;6492;48.128;8.320;2023-04-24T05:19:46;4.70;75.40
12847;DHT22;6492;48.128;8.320;2023-04-24T05:23:48;4.80;75.70
12847;DHT22;6492;48.128;8.320;2023-04-24T05:27:51;5.00;76.20
12847;DHT22;6492;48.128;8.320;2023-04-24T05:31:53;5.10;76.60
12847;DHT22;6492;48.128;8.320;2023-04-24T05:35:55;5.40;77.20
12847;DHT22;6492;48.128;8.320;2023-04-24T05:39:58;5.60;77.40
12847;DHT22;6492;48.128;8.320;2023-04-24T05:44:01;5.70;76.80
12847;DHT22;6492;48.128;8.320;2023-04-24T05:48:03;5.80;76.10
12847;DHT22;6492;48.128;8.320;2023-04-24T05:52:04;5.90;74.90
12847;DHT22;6492;48.128;8.320;2023-04-24T05:56:09;6.20;73.70
12847;DHT22;6492;48.128;8.320;2023-04-24T06:00:13;6.30;69.90
12847;DHT22;6492;48.128;8.320;2023-04-24T06:04:45;6.30;67.00
12847;DHT22;6492;48.128;8.320;2023-04-24T06:08:47;5.90;58.30
12847;DHT22;6492;48.128;8.320;2023-04-24T06:12:49;5.60;61.40
12847;DHT22;6492;48.128;8.320;2023-04-24T06:16:52;5.40;59.80
12847;DHT22;6492;48.128;8.320;2023-04-24T06:20:54;5.20;59.60
12847;DHT22;6492;48.128;8.320;2023-04-24T06:24:56;5.30;62.50
12847;DHT22;6492;48.128;8.320;2023-04-24T06:28:58;5.50;63.70
12847;DHT22;6492;48.128;8.320;2023-04-24T06:33:02;5.70;63.20
12847;DHT22;6492;48.128;8.320;2023-04-24T06:37:03;5.90;64.10
12847;DHT22;6492;48.128;8.320;2023-04-24T06:41:05;6.10;63.20
12847;DHT22;6492;48.128;8.320;2023-04-24T06:45:07;6.20;58.30
12847;DHT22;6492;48.128;8.320;2023-04-24T06:49:11;6.30;53.80
12847;DHT22;6492;48.128;8.320;2023-04-24T06:53:12;6.40;53.70
12847;DHT22;6492;48.128;8.320;2023-04-24T06:57:15;6.60;50.30
12847;DHT22;6492;48.128;8.320;2023-04-24T07:01:17;6.60;49.20
12847;DHT22;6492;48.128;8.320;2023-04-24T07:05:20;6.50;46.80
12847;DHT22;6492;48.128;8.320;2023-04-24T07:09:22;6.40;44.50
12847;DHT22;6492;48.128;8.320;2023-04-24T07:13:25;6.50;43.90
12847;DHT22;6492;48.128;8.320;2023-04-24T07:17:27;6.50;44.40
12847;DHT22;6492;48.128;8.320;2023-04-24T07:21:30;6.40;45.00
12847;DHT22;6492;48.128;8.320;2023-04-24T07:25:32;6.40;44.20
12847;DHT22;6492;48.128;8.320;2023-04-24T07:29:34;6.20;40.70
12847;DHT22;6492;48.128;8.320;2023-04-24T07:33:36;6.00;40.40
12847;DHT22;6492;48.128;8.320;2023-04-24T07:37:40;6.00;40.90
12847;DHT22;6492;48.128;8.320;2023-04-24T07:41:46;6.00;38.30
12847;DHT22;6492;48.128;8.320;2023-04-24T07:45:47;6.00;40.00
12847;DHT22;6492;48.128;8.320;2023-04-24T07:49:49;5.80;39.40
12847;DHT22;6492;48.128;8.320;2023-04-24T07:53:52;6.00;40.60
12847;DHT22;6492;48.128;8.320;2023-04-24T07:57:55;6.80;36.80
12847;DHT22;6492;48.128;8.320;2023-04-24T08:01:56;7.70;32.50
12847;DHT22;6492;48.128;8.320;2023-04-24T08:05:58;8.00;29.80
12847;DHT22;6492;48.128;8.320;2023-04-24T08:10:01;8.00;22.50
12847;DHT22;6492;48.128;8.320;2023-04-24T08:14:03;7.80;24.60
12847;DHT22;6492;48.128;8.320;2023-04-24T08:18:05;8.40;24.20
12847;DHT22;6492;48.128;8.320;2023-04-24T08:22:07;9.00;21.70
12847;DHT22;6492;48.128;8.320;2023-04-24T08:26:10;9.50;18.50
12847;DHT22;6492;48.128;8.320;2023-04-24T08:30:12;9.40;17.60
12847;DHT22;6492;48.128;8.320;2023-04-24T08:34:14;8.60;21.00
12847;DHT22;6492;48.128;8.320;2023-04-24T08:38:16;7.50;25.30
12847;DHT22;6492;48.128;8.320;2023-04-24T08:42:20;6.70;28.80
12847;DHT22;6492;48.128;8.320;2023-04-24T08:46:22;6.00;34.60
12847;DHT22;6492;48.128;8.320;2023-04-24T08:50:25;5.70;38.50
12847;DHT22;6492;48.128;8.320;2023-04-24T08:54:28;5.40;41.20
12847;DHT22;6492;48.128;8.320;2023-04-24T08:58:32;5.10;43.30
12847;DHT22;6492;48.128;8.320;2023-04-24T09:02:34;4.90;48.10
12847;DHT22;6492;48.128;8.320;2023-04-24T09:06:36;4.80;47.50
12847;DHT22;6492;48.128;8.320;2023-04-24T09:10:39;4.90;51.80
12847;DHT22;6492;48.128;8.320;2023-04-24T09:15:08;5.10;48.60
12847;DHT22;6492;48.128;8.320;2023-04-24T09:19:10;5.20;44.90
12847;DHT22;6492;48.128;8.320;2023-04-24T09:23:17;5.40;43.50
12847;DHT22;6492;48.128;8.320;2023-04-24T09:27:19;5.60;43.10
12847;DHT22;6492;48.128;8.320;2023-04-24T09:31:27;5.70;36.90
12847;DHT22;6492;48.128;8.320;2023-04-24T09:35:32;6.00;36.80
12847;DHT22;6492;48.128;8.320;2023-04-24T09:39:33;6.60;34.10
12847;DHT22;6492;48.128;8.320;2023-04-24T09:43:35;7.10;31.30
12847;DHT22;6492;48.128;8.320;2023-04-24T09:47:38;7.30;28.90
12847;DHT22;6492;48.128;8.320;2023-04-24T09:51:41;7.20;27.80
12847;DHT22;6492;48.128;8.320;2023-04-24T09:55:45;6.70;28.20
12847;DHT22;6492;48.128;8.320;2023-04-24T09:59:48;6.20;30.90
12847;DHT22;6492;48.128;8.320;2023-04-24T10:03:55;6.10;30.10
12847;DHT22;6492;48.128;8.320;2023-04-24T10:08:01;6.30;30.50
12847;DHT22;6492;48.128;8.320;2023-04-24T10:12:04;7.20;30.60
12847;DHT22;6492;48.128;8.320;2023-04-24T10:16:08;8.20;23.20
12847;DHT22;6492;48.128;8.320;2023-04-24T10:20:12;8.70;21.20
12847;DHT22;6492;48.128;8.320;2023-04-24T10:24:15;9.30;18.30
12847;DHT22;6492;48.128;8.320;2023-04-24T10:28:18;9.70;17.10
12847;DHT22;6492;48.128;8.320;2023-04-24T10:32:20;9.70;12.40
12847;DHT22;6492;48.128;8.320;2023-04-24T10:36:24;9.20;14.40
12847;DHT22;6492;48.128;8.320;2023-04-24T10:40:30;8.70;15.70
12847;DHT22;6492;48.128;8.320;2023-04-24T10:44:36;8.60;13.30
12847;DHT22;6492;48.128;8.320;2023-04-24T10:48:42;9.10;11.50
12847;DHT22;6492;48.128;8.320;2023-04-24T10:53:14;9.50;12.20
12847;DHT22;6492;48.128;8.320;2023-04-24T10:57:27;9.60;9.50
12847;DHT22;6492;48.128;8.320;2023-04-24T11:01:31;9.30;8.60
12847;DHT22;6492;48.128;8.320;2023-04-24T11:06:07;9.10;11.50
12847;DHT22;6492;48.128;8.320;2023-04-24T11:10:54;9.20;10.60
12847;DHT22;6492;48.128;8.320;2023-04-24T11:15:24;8.90;8.90
12847;DHT22;6492;48.128;8.320;2023-04-24T11:19:27;9.00;9.20
12847;DHT22;6492;48.128;8.320;2023-04-24T11:23:45;9.30;8.10
12847;DHT22;6492;48.128;8.320;2023-04-24T11:27:49;10.20;9.90
12847;DHT22;6492;48.128;8.320;2023-04-24T11:31:51;10.60;4.50
12847;DHT22;6492;48.128;8.320;2023-04-24T11:35:53;10.20;4.00
12847;DHT22;6492;48.128;8.320;2023-04-24T11:39:56;9.50;4.30
12847;DHT22;6492;48.128;8.320;2023-04-24T11:44:00;9.30;4.70
12847;DHT22;6492;48.128;8.320;2023-04-24T11:48:03;9.40;6.70
12847;DHT22;6492;48.128;8.320;2023-04-24T11:52:05;9.50;7.30
12847;DHT22;6492;48.128;8.320;2023-04-24T11:56:08;10.00;5.50
12847;DHT22;6492;48.128;8.320;2023-04-24T12:00:15;9.80;6.20
12847;DHT22;6492;48.128;8.320;2023-04-24T12:04:18;9.60;6.20
12847;DHT22;6492;48.128;8.320;2023-04-24T12:08:27;9.40;5.90
12847;DHT22;6492;48.128;8.320;2023-04-24T12:12:29;9.10;6.90
12847;DHT22;6492;48.128;8.320;2023-04-24T12:16:33;9.00;8.40
12847;DHT22;6492;48.128;8.320;2023-04-24T12:20:35;9.10;7.80
12847;DHT22;6492;48.128;8.320;2023-04-24T12:24:55;9.10;6.70
12847;DHT22;6492;48.128;8.320;2023-04-24T12:29:01;9.10;7.50
12847;DHT22;6492;48.128;8.320;2023-04-24T12:33:06;9.10;9.40
12847;DHT22;6492;48.128;8.320;2023-04-24T12:37:10;9.20;7.70
12847;DHT22;6492;48.128;8.320;2023-04-24T12:41:13;9.10;7.20
12847;DHT22;6492;48.128;8.320;2023-04-24T12:45:16;8.80;7.70
12847;DHT22;6492;48.128;8.320;2023-04-24T12:49:30;8.20;9.90
12847;DHT22;6492;48.128;8.320;2023-04-24T12:53:32;8.10;11.00
12847;DHT22;6492;48.128;8.320;2023-04-24T12:57:42;8.00;11.70
12847;DHT22;6492;48.128;8.320;2023-04-24T13:01:44;8.00;11.70
12847;DHT22;6492;48.128;8.320;2023-04-24T13:05:47;8.10;10.80
12847;DHT22;6492;48.128;8.320;2023-04-24T13:09:50;7.90;11.00
12847;DHT22;6492;48.128;8.320;2023-04-24T13:13:52;7.70;12.80
12847;DHT22;6492;48.128;8.320;2023-04-24T13:17:54;7.50;14.10
12847;DHT22;6492;48.128;8.320;2023-04-24T13:21:57;7.60;14.40
12847;DHT22;6492;48.128;8.320;2023-04-24T13:25:59;7.90;13.50
12847;DHT22;6492;48.128;8.320;2023-04-24T13:30:02;8.20;12.60
12847;DHT22;6492;48.128;8.320;2023-04-24T13:34:03;8.60;12.00
12847;DHT22;6492;48.128;8.320;2023-04-24T13:38:07;9.10;11.20
12847;DHT22;6492;48.128;8.320;2023-04-24T13:42:08;9.30;9.20
12847;DHT22;6492;48.128;8.320;2023-04-24T13:46:21;9.20;9.30
12847;DHT22;6492;48.128;8.320;2023-04-24T13:50:23;9.20;8.80
12847;DHT22;6492;48.128;8.320;2023-04-24T13:54:27;9.10;9.50
12847;DHT22;6492;48.128;8.320;2023-04-24T13:58:29;9.00;9.60
12847;DHT22;6492;48.128;8.320;2023-04-24T14:02:32;9.20;11.00
12847;DHT22;6492;48.128;8.320;2023-04-24T14:06:34;9.40;10.20
12847;DHT22;6492;48.128;8.320;2023-04-24T14:10:43;9.30;8.80
12847;DHT22;6492;48.128;8.320;2023-04-24T14:14:46;9.00;10.00
12847;DHT22;6492;48.128;8.320;2023-04-24T14:18:48;8.60;10.70
12847;DHT22;6492;48.128;8.320;2023-04-24T14:22:58;8.40;12.10
12847;DHT22;6492;48.128;8.320;2023-04-24T14:27:01;8.30;14.20
12847;DHT22;6492;48.128;8.320;2023-04-24T14:31:03;8.30;13.40
12847;DHT22;6492;48.128;8.320;2023-04-24T14:35:06;8.20;13.30
12847;DHT22;6492;48.128;8.320;2023-04-24T14:39:08;8.10;13.30
12847;DHT22;6492;48.128;8.320;2023-04-24T14:43:30;8.00;13.60
12847;DHT22;6492;48.128;8.320;2023-04-24T14:47:33;8.00;14.70
12847;DHT22;6492;48.128;8.320;2023-04-24T14:51:34;8.00;14.20
12847;DHT22;6492;48.128;8.320;2023-04-24T14:55:36;7.90;14.40
12847;DHT22;6492;48.128;8.320;2023-04-24T15:00:01;7.70;15.10
12847;DHT22;6492;48.128;8.320;2023-04-24T15:04:03;7.40;18.10
12847;DHT22;6492;48.128;8.320;2023-04-24T15:08:05;7.10;19.20
12847;DHT22;6492;48.128;8.320;2023-04-24T15:12:07;6.80;21.40
12847;DHT22;6492;48.128;8.320;2023-04-24T15:16:28;6.60;23.90
12847;DHT22;6492;48.128;8.320;2023-04-24T15:20:29;6.30;26.10
12847;DHT22;6492;48.128;8.320;2023-04-24T15:24:31;6.00;27.50
12847;DHT22;6492;48.128;8.320;2023-04-24T15:28:48;5.80;30.30
12847;DHT22;6492;48.128;8.320;2023-04-24T15:32:52;5.60;32.90
12847;DHT22;6492;48.128;8.320;2023-04-24T15:36:54;5.40;32.30
12847;DHT22;6492;48.128;8.320;2023-04-24T15:40:55;5.20;34.50
12847;DHT22;6492;48.128;8.320;2023-04-24T15:44:57;5.30;36.90
12847;DHT22;6492;48.128;8.320;2023-04-24T15:49:00;5.40;37.90
12847;DHT22;6492;48.128;8.320;2023-04-24T15:53:02;5.60;39.20
12847;DHT22;6492;48.128;8.320;2023-04-24T15:57:04;6.00;41.60
12847;DHT22;6492;48.128;8.320;2023-04-24T16:01:06;6.20;39.20
12847;DHT22;6492;48.128;8.320;2023-04-24T16:05:17;6.40;34.90
12847;DHT22;6492;48.128;8.320;2023-04-24T16:09:22;6.50;34.30
12847;DHT22;6492;48.128;8.320;2023-04-24T16:13:24;6.60;35.30
12847;DHT22;6492;48.128;8.320;2023-04-24T16:17:38;6.80;35.70
12847;DHT22;6492;48.128;8.320;2023-04-24T16:21:41;6.90;34.90
12847;DHT22;6492;48.128;8.320;2023-04-24T16:25:50;6.90;29.90
12847;DHT22;6492;48.128;8.320;2023-04-24T16:29:52;6.80;32.70
12847;DHT22;6492;48.128;8.320;2023-04-24T16:33:54;6.60;32.20
12847;DHT22;6492;48.128;8.320;2023-04-24T16:37:57;6.50;34.00
12847;DHT22;6492;48.128;8.320;2023-04-24T16:41:59;6.40;34.70
12847;DHT22;6492;48.128;8.320;2023-04-24T16:46:02;6.50;32.90
12847;DHT22;6492;48.128;8.320;2023-04-24T16:50:05;6.60;33.60
12847;DHT22;6492;48.128;8.320;2023-04-24T16:54:08;6.80;35.60
12847;DHT22;6492;48.128;8.320;2023-04-24T16:58:10;6.90;32.90
12847;DHT22;6492;48.128;8.320;2023-04-24T17:02:12;6.90;30.20
12847;DHT22;6492;48.128;8.320;2023-04-24T17:06:14;6.90;31.50
12847;DHT22;6492;48.128;8.320;2023-04-24T17:10:18;6.90;30.70
12847;DHT22;6492;48.128;8.320;2023-04-24T17:14:20;6.90;31.00
12847;DHT22;6492;48.128;8.320;2023-04-24T17:18:23;6.80;30.90
12847;DHT22;6492;48.128;8.320;2023-04-24T17:22:33;6.80;32.20
12847;DHT22;6492;48.128;8.320;2023-04-24T17:26:39;6.70;30.50
12847;DHT22;6492;48.128;8.320;2023-04-24T17:30:41;6.60;29.90
12847;DHT22;6492;48.128;8.320;2023-04-24T17:34:42;6.50;30.60
12847;DHT22;6492;48.128;8.320;2023-04-24T17:38:47;6.30;32.30
12847;DHT22;6492;48.128;8.320;2023-04-24T17:42:50;6.10;32.00
12847;DHT22;6492;48.128;8.320;2023-04-24T17:46:52;5.80;33.20
12847;DHT22;6492;48.128;8.320;2023-04-24T17:50:54;5.60;33.50
12847;DHT22;6492;48.128;8.320;2023-04-24T17:54:56;5.40;36.40
12847;DHT22;6492;48.128;8.320;2023-04-24T17:59:00;5.20;38.10
12847;DHT22;6492;48.128;8.320;2023-04-24T18:03:03;5.20;38.90
12847;DHT22;6492;48.128;8.320;2023-04-24T18:07:06;5.10;39.70
12847;DHT22;6492;48.128;8.320;2023-04-24T18:11:08;5.20;37.50
12847;DHT22;6492;48.128;8.320;2023-04-24T18:15:12;5.30;38.30
12847;DHT22;6492;48.128;8.320;2023-04-24T18:19:16;5.30;37.00
12847;DHT22;6492;48.128;8.320;2023-04-24T18:23:18;5.30;36.30
12847;DHT22;6492;48.128;8.320;2023-04-24T18:27:31;5.30;37.20
12847;DHT22;6492;48.128;8.320;2023-04-24T18:31:42;5.20;38.10
12847;DHT22;6492;48.128;8.320;2023-04-24T18:35:46;5.10;38.50
12847;DHT22;6492;48.128;8.320;2023-04-24T18:40:00;5.00;38.80
12847;DHT22;6492;48.128;8.320;2023-04-24T18:44:04;4.80;40.00
12847;DHT22;6492;48.128;8.320;2023-04-24T18:48:07;4.70;39.80
12847;DHT22;6492;48.128;8.320;2023-04-24T18:52:19;4.70;39.00
12847;DHT22;6492;48.128;8.320;2023-04-24T18:56:42;4.60;37.90
12847;DHT22;6492;48.128;8.320;2023-04-24T19:00:47;4.40;38.40
12847;DHT22;6492;48.128;8.320;2023-04-24T19:04:50;4.30;38.90
12847;DHT22;6492;48.128;8.320;2023-04-24T19:08:52;4.10;39.20
12847;DHT22;6492;48.128;8.320;2023-04-24T19:13:01;4.10;40.00
12847;DHT22;6492;48.128;8.320;2023-04-24T19:17:21;4.00;40.90
12847;DHT22;6492;48.128;8.320;2023-04-24T19:21:45;4.00;41.70
12847;DHT22;6492;48.128;8.320;2023-04-24T19:25:49;3.90;41.50
12847;DHT22;6492;48.128;8.320;2023-04-24T19:29:54;3.80;41.50
12847;DHT22;6492;48.128;8.320;2023-04-24T19:33:56;3.70;41.80
12847;DHT22;6492;48.128;8.320;2023-04-24T19:37:59;3.80;41.80
12847;DHT22;6492;48.128;8.320;2023-04-24T19:42:01;3.80;41.80
12847;DHT22;6492;48.128;8.320;2023-04-24T19:46:06;3.80;42.70
12847;DHT22;6492;48.128;8.320;2023-04-24T19:50:08;3.90;42.50
12847;DHT22;6492;48.128;8.320;2023-04-24T19:54:11;3.90;42.80
12847;DHT22;6492;48.128;8.320;2023-04-24T19:58:20;4.10;41.80
12847;DHT22;6492;48.128;8.320;2023-04-24T20:02:25;4.10;41.20
12847;DHT22;6492;48.128;8.320;2023-04-24T20:06:27;4.20;41.30
12847;DHT22;6492;48.128;8.320;2023-04-24T20:10:31;4.20;40.80
12847;DHT22;6492;48.128;8.320;2023-04-24T20:14:32;4.20;40.00
12847;DHT22;6492;48.128;8.320;2023-04-24T20:18:34;4.10;40.80
12847;DHT22;6492;48.128;8.320;2023-04-24T20:22:36;4.10;41.50
12847;DHT22;6492;48.128;8.320;2023-04-24T20:26:40;4.00;41.90
12847;DHT22;6492;48.128;8.320;2023-04-24T20:30:42;4.10;41.50
12847;DHT22;6492;48.128;8.320;2023-04-24T20:34:43;4.10;40.80
12847;DHT22;6492;48.128;8.320;2023-04-24T20:38:59;4.10;41.60
12847;DHT22;6492;48.128;8.320;2023-04-24T20:43:03;4.10;39.00
12847;DHT22;6492;48.128;8.320;2023-04-24T20:47:06;4.20;39.20
12847;DHT22;6492;48.128;8.320;2023-04-24T20:51:07;4.20;38.20
12847;DHT22;6492;48.128;8.320;2023-04-24T20:55:09;4.30;37.30
12847;DHT22;6492;48.128;8.320;2023-04-24T20:59:12;4.40;35.90
12847;DHT22;6492;48.128;8.320;2023-04-24T21:03:14;4.40;36.00
12847;DHT22;6492;48.128;8.320;2023-04-24T21:07:18;4.40;36.50
12847;DHT22;6492;48.128;8.320;2023-04-24T21:11:20;4.40;36.30
12847;DHT22;6492;48.128;8.320;2023-04-24T21:15:23;4.30;36.60
12847;DHT22;6492;48.128;8.320;2023-04-24T21:19:25;4.30;36.70
12847;DHT22;6492;48.128;8.320;2023-04-24T21:23:26;4.30;36.60
12847;DHT22;6492;48.128;8.320;2023-04-24T21:27:28;4.30;36.70
12847;DHT22;6492;48.128;8.320;2023-04-24T21:31:32;4.30;36.30
12847;DHT22;6492;48.128;8.320;2023-04-24T21:35:33;4.20;36.20
12847;DHT22;6492;48.128;8.320;2023-04-24T21:39:35;4.20;36.40
12847;DHT22;6492;48.128;8.320;2023-04-24T21:43:37;4.20;34.50
12847;DHT22;6492;48.128;8.320;2023-04-24T21:48:13;4.20;34.90
12847;DHT22;6492;48.128;8.320;2023-04-24T21:52:14;4.10;35.10
12847;DHT22;6492;48.128;8.320;2023-04-24T21:56:16;4.10;35.80
12847;DHT22;6492;48.128;8.320;2023-04-24T22:00:18;4.10;36.40
12847;DHT22;6492;48.128;8.320;2023-04-24T22:04:22;4.10;36.90
12847;DHT22;6492;48.128;8.320;2023-04-24T22:08:24;4.10;37.50
12847;DHT22;6492;48.128;8.320;2023-04-24T22:12:26;4.20;36.70
12847;DHT22;6492;48.128;8.320;2023-04-24T22:16:28;4.20;36.60
12847;DHT22;6492;48.128;8.320;2023-04-24T22:20:31;4.20;36.50
12847;DHT22;6492;48.128;8.320;2023-04-24T22:24:33;4.30;36.70
12847;DHT22;6492;48.128;8.320;2023-04-24T22:28:35;4.30;36.50
12847;DHT22;6492;48.128;8.320;2023-04-24T22:32:37;4.30;36.90
12847;DHT22;6492;48.128;8.320;2023-04-24T22:36:40;4.30;36.50
12847;DHT22;6492;48.128;8.320;2023-04-24T22:40:42;4.30;36.60
12847;DHT22;6492;48.128;8.320;2023-04-24T22:44:44;4.30;36.30
12847;DHT22;6492;48.128;8.320;2023-04-24T22:48:45;4.20;36.80
12847;DHT22;6492;48.128;8.320;2023-04-24T22:52:51;4.10;37.70
12847;DHT22;6492;48.128;8.320;2023-04-24T22:56:53;4.00;39.80
12847;DHT22;6492;48.128;8.320;2023-04-24T23:00:55;4.10;39.50
12847;DHT22;6492;48.128;8.320;2023-04-24T23:04:57;4.20;39.40
12847;DHT22;6492;48.128;8.320;2023-04-24T23:09:00;4.20;38.60
12847;DHT22;6492;48.128;8.320;2023-04-24T23:13:01;4.30;37.50
12847;DHT22;6492;48.128;8.320;2023-04-24T23:17:03;4.30;38.20
12847;DHT22;6492;48.128;8.320;2023-04-24T23:21:05;4.30;39.20
12847;DHT22;6492;48.128;8.320;2023-04-24T23:25:09;4.30;39.80
12847;DHT22;6492;48.128;8.320;2023-04-24T23:29:11;4.30;39.50
12847;DHT22;6492;48.128;8.320;2023-04-24T23:33:12;4.30;39.40
12847;DHT22;6492;48.128;8.320;2023-04-24T23:37:47;4.30;39.30
12847;DHT22;6492;48.128;8.320;2023-04-24T23:41:50;4.30;39.40
12847;DHT22;6492;48.128;8.320;2023-04-24T23:45:53;4.30;39.50
12847;DHT22;6492;48.128;8.320;2023-04-24T23:49:54;4.30;40.40
12847;DHT22;6492;48.128;8.320;2023-04-24T23:53:56;4.30;38.80
12847;DHT22;6492;48.128;8.320;2023-04-24T23:57:59;4.30;39.00
